Historyczne dane pomiarowe

Dodano dane terminowe – wersja testowa.

Dane z okresu 1951-2019

Wersja bazy: 1.34 [2019-03-16, lista zmian], aktualizacja planowana na 2019-04-15

Dane meteo z obszaru Polski uzyskane na podstawie danych udostępnionych przez Instytut Meteorologii i Gospodarki Wodnej – Państwowy Instytut Badawczy.

 

Wybierz Datę:    

       

TemperaturaWilgotnośćWiatrCiśnienieOpadyŚniegCzas trwania zjawisk
 Stacja t tx tn tng RH VA  wxwx mslp ppp RRR   cm mm wxwxwxwxwxwxwx
1961-08-14 15.7 20.5 12.8 11.1 81.5- 6.7 2.3---- 0.0------------
1961-08-13 15.5 19.7 12.8 10.7 75.5- 1.0 7.7---- 0.0------------
1961-08-12 16.3 20.7 11.2 9.6 89.8- 6.3 2.3---- 3.6------------
1961-08-11 15.8 18.0 14.0 14.6 91.0- 5.7 1.3---- 0.2------------
1961-08-10 16.7 22.5 12.3 10.3 87.5- 5.0 1.3---- 6.7------------
1961-08-09 16.3 22.7 12.5 12.4 83.5- 4.0 1.7---- 0.0------------
1961-08-08 16.4 19.7 12.6 11.3 84.5- 4.7 4.3---- 0.0------------
1961-08-07 15.1 17.3 12.4 10.9 95.3- 7.7 0.7---- 11.7------------
1961-08-06 16.9 26.0 13.8 11.8 90.0- 5.7 3.0---- 7.4------------
1961-08-05 16.4 21.2 13.0 13.4 85.5- 5.0 4.3---- 1.3------------
1961-08-04 14.5 18.1 12.1 10.0 88.3- 7.3 6.3---- 3.8------------
1961-08-03 15.5 18.7 13.3 12.0 88.5- 5.3 2.7---- 3.0------------
1961-08-02 17.4 22.2 13.5 12.4 80.0- 4.0 3.3---- 0.5------------
1961-08-01 15.1 17.6 13.9 13.4 94.3- 8.0 4.0---- 16.6------------
1961-07-31 15.5 18.0 14.3 13.7 93.5- 8.0 3.7---- 24.3------------
1961-07-30 15.9 19.8 13.1 10.3 87.3- 7.0 1.3---- 2.5------------
1961-07-29 15.7 19.2 12.5 10.5 76.0- 6.7 4.7---- 0.0------------
1961-07-28 14.7 15.9 13.6 12.8 81.8- 7.3 4.0---- 1.0------------
1961-07-27 16.3 20.1 13.9 13.2 83.5- 6.3 6.7---- 1.1------------
1961-07-26 16.1 18.6 14.3 13.3 92.3- 8.0 4.3---- 1.9------------
1961-07-25 15.7 19.6 12.9 11.2 77.0- 7.3 6.7---- 0.0------------
1961-07-24 15.9 21.0 13.4 12.1 76.0- 5.3 7.3---- 0.0------------
1961-07-23 15.5 19.8 14.1 13.9 84.8- 6.3 3.7---- 0.0------------
1961-07-22 16.5 20.5 12.6 10.6 82.5- 6.7 5.7---- 0.0------------
1961-07-21 15.0 20.3 11.3 9.5 95.3- 7.7 1.3---- 12.2------------
1961-07-20 15.5 22.7 11.7 11.2 84.5- 4.7 0.3---- 1.9------------
1961-07-19 15.7 20.7 13.0 11.4 91.5- 7.0 1.3---- 6.3------------
1961-07-18 15.8 19.4 12.4 12.4 89.0- 7.3 0.0---- 1.9------------
1961-07-17 16.4 20.8 7.1 5.2 79.8- 2.7 2.0---- 0.6------------
1961-07-16 14.7 16.9 8.4 5.9 91.8- 7.3 1.3---- 0.7------------
1961-07-15 15.3 21.4 12.4 11.6 87.3- 4.3 2.0---- 3.8------------
1961-07-14 15.3 20.2 13.4 13.6 85.0- 8.0 6.3---- 0.0------------
1961-07-13 19.9 24.4 12.8 10.1 81.3- 5.7 6.0---- 28.0------------
1961-07-12 16.0 21.9 13.8 12.9 91.0- 5.3 1.0---- 0.0------------
1961-07-11 16.0 20.4 12.3 11.0 73.5- 4.7 5.0---- 0.5------------
1961-07-10 14.4 17.1 12.1 10.8 81.0- 6.7 3.3---- 2.8------------
1961-07-09 15.6 20.2 13.0 12.4 86.3- 7.3 4.7---- 0.7------------
1961-07-08 15.6 19.9 11.5 9.3 84.3- 6.3 2.3---- 3.3------------
1961-07-07 12.9 18.4 10.7 10.1 84.3- 5.0 5.7---- 15.4------------
1961-07-06 13.0 16.1 9.7 8.6 85.3- 5.0 6.3---- 3.7------------
1961-07-05 13.8 18.0 11.8 12.3 74.3- 2.7 7.0---- 0.7------------
1961-07-04 17.1 21.0 13.5 11.3 77.5- 7.0 4.0---- 0.0------------
1961-07-03 21.5 29.8 13.6 9.8 73.5- 2.7 3.0---- 0.7------------
1961-07-02 20.6 28.0 8.3 5.0 75.0- 0.0 1.3---- 0.0------------
1961-07-01 16.6 21.5 8.8 5.5 83.3- 0.3 0.0---- 0.0------------
1961-06-30 17.0 23.0 13.3 9.9 75.0- 0.0 4.0---- 0.0------------
1961-06-29 15.7 19.8 12.9 11.0 79.0- 3.3 4.3---- 0.0------------
1961-06-28 15.2 18.5 13.4 13.2 69.8- 2.7 9.7---- 0.0------------
1961-06-27 19.4 26.3 13.1 9.5 84.5- 5.0 1.0---- 4.2------------
1961-06-26 17.8 24.1 14.0 12.7 78.5- 0.0 2.7---- 0.0------------
1961-06-25 20.3 25.9 14.6 13.8 64.5- 4.0 5.0---- 0.0------------
1961-06-24 17.5 20.9 13.6 13.4 64.0- 5.7 6.0---- 0.0------------
1961-06-23 17.6 21.7 11.0 7.9 70.8- 3.3 3.7---- 0.0------------
1961-06-22 15.7 21.1 10.7 7.8 75.8- 1.7 1.0---- 0.0------------
1961-06-21 14.1 20.2 10.1 7.2 76.8- 4.7 2.3---- 0.6------------
1961-06-20 14.5 18.7 11.2 9.5 67.3- 2.7 6.0---- 0.0------------
1961-06-19 15.8 19.8 12.4 9.9 66.5- 0.7 7.0---- 0.0------------
1961-06-18 18.8 25.2 14.1 11.4 79.5- 5.0 5.3---- 0.0------------
1961-06-17 17.1 21.0 11.8 12.2 78.8- 4.0 3.7---- 0.0------------
1961-06-16 14.5 16.9 11.5 9.9 84.8- 7.3 6.0---- 1.4------------
251.4 ms

 

Źródłem pochodzenia danych jest Instytut Meteorologii i Gospodarki Wodnej – Państwowy Instytut Badawczy. Dane Instytutu Meteorologii i Gospodarki Wodnej – Państwowego Instytutu Badawczego zostały przetworzone.

Dane źródłowe można odnaleźć na stronie https://dane.imgw.pl